Igarka, Russia
Current Conditions -  °F | °C
As of 2:30 PM on Saturday 01 Nov 2014 (Local Time) from USNN Reporting Station
Overcast Overcast  
Wind Chill: 30°   Ceiling: 600
Heat Index: 36°   Visibility: 4mi
Dew Point: 36°   Wind: 7mph
Humidity: 100%   Direction: 230°SW
Pressure: 29.77"   Gusts: 13mph
Location:  67.47°N, 86.58°E
Report Text: USNN 010730Z 23003G06MPS 6000 OVC006 02/02 Q1008 TEMPO 2000 BROVC003 RMK QFE751 QBB190 21250247
Loading
Personal Weather Stations






























Interactive Weather Map
Tropical Storm Tracking
New forecast layout! Learn more

10-Day Weather Forecast

Advertisements
Track Severe Weather on mobile